createdAt,value
2018-06-14T00:00:23.181Z,78.42
2018-06-14T00:02:53.643Z,78.62
2018-06-14T00:05:24.116Z,79.03
2018-06-14T00:07:55.822Z,77.90
2018-06-14T00:10:26.261Z,77.52
2018-06-14T00:12:56.573Z,78.38
2018-06-14T00:15:26.927Z,78.09
2018-06-14T00:17:57.261Z,77.72
2018-06-14T00:20:27.589Z,79.12
2018-06-14T00:23:03.653Z,79.12
2018-06-14T00:25:47.181Z,78.60
2018-06-14T00:28:40.497Z,78.57
2018-06-14T00:31:10.938Z,78.11
2018-06-14T00:33:41.285Z,78.45
2018-06-14T00:36:11.711Z,78.25
2018-06-14T00:38:43.425Z,78.21
2018-06-14T00:41:13.869Z,78.95
2018-06-14T00:43:44.424Z,79.14
2018-06-14T00:46:14.812Z,79.55
2018-06-14T00:48:48.249Z,79.53
2018-06-14T00:51:18.642Z,78.83
2018-06-14T00:53:49.059Z,78.47
2018-06-14T00:56:19.173Z,78.60
2018-06-14T00:58:49.649Z,78.61
2018-06-14T01:01:20.102Z,79.46
2018-06-14T01:03:50.487Z,80.03
2018-06-14T01:06:20.980Z,79.68
2018-06-14T01:08:54.573Z,79.53
2018-06-14T01:11:24.936Z,80.04
2018-06-14T01:13:56.037Z,79.70
2018-06-14T01:16:26.471Z,80.17
2018-06-14T01:18:56.863Z,80.56
2018-06-14T01:21:27.306Z,79.92
2018-06-14T01:23:57.586Z,79.95
2018-06-14T01:26:28.032Z,78.74
2018-06-14T01:29:01.965Z,79.09
2018-06-14T01:31:32.383Z,79.88
2018-06-14T01:34:02.692Z,80.24
2018-06-14T01:36:32.924Z,80.68
2018-06-14T01:39:03.703Z,80.36
2018-06-14T01:41:34.144Z,80.02
2018-06-14T01:44:04.468Z,78.27
2018-06-14T01:46:34.813Z,76.80
2018-06-14T01:49:08.700Z,77.48
2018-06-14T01:51:39.176Z,77.74
2018-06-14T01:54:09.178Z,76.84
2018-06-14T01:56:39.566Z,76.44
2018-06-14T01:59:13.036Z,75.78
2018-06-14T02:01:43.526Z,76.60
2018-06-14T02:04:13.834Z,76.77
2018-06-14T02:06:44.244Z,76.69
2018-06-14T02:09:18.136Z,76.01
2018-06-14T02:11:48.350Z,75.79
2018-06-14T02:14:18.808Z,76.10
2018-06-14T02:16:49.085Z,78.12
2018-06-14T02:19:23.574Z,77.91
2018-06-14T02:21:54.002Z,75.88
2018-06-14T02:24:24.467Z,75.38
2018-06-14T02:26:54.913Z,75.41
2018-06-14T02:29:28.958Z,75.95
2018-06-14T02:31:59.273Z,75.85
2018-06-14T02:34:29.593Z,74.37
2018-06-14T02:36:59.816Z,73.14
2018-06-14T02:39:33.353Z,74.34
2018-06-14T02:42:03.609Z,76.15
2018-06-14T02:44:33.616Z,75.80
2018-06-14T02:47:03.911Z,76.06
2018-06-14T02:49:37.821Z,75.87
2018-06-14T02:52:08.198Z,77.20
2018-06-14T02:54:38.609Z,76.39
2018-06-14T02:57:08.944Z,76.68
2018-06-14T02:59:39.249Z,76.52
2018-06-14T03:02:09.740Z,76.25
2018-06-14T03:04:40.124Z,76.43
2018-06-14T03:07:10.545Z,76.85
2018-06-14T03:09:41.008Z,77.14
2018-06-14T03:12:11.464Z,77.10
2018-06-14T03:14:41.898Z,76.71
2018-06-14T03:17:12.417Z,77.71
2018-06-14T03:19:42.819Z,77.76
2018-06-14T03:22:13.016Z,77.99
2018-06-14T03:24:43.493Z,78.26
2018-06-14T03:27:17.863Z,77.57
2018-06-14T03:29:48.267Z,79.04
2018-06-14T03:32:18.337Z,77.56
2018-06-14T03:34:48.693Z,77.75
2018-06-14T03:37:19.160Z,77.64
2018-06-14T03:39:49.645Z,77.13
2018-06-14T03:42:20.044Z,77.33
2018-06-14T03:44:50.408Z,76.84
2018-06-14T03:47:23.863Z,77.06
2018-06-14T03:49:54.221Z,76.84
2018-06-14T03:52:24.650Z,75.82
2018-06-14T03:54:54.974Z,75.68
2018-06-14T03:57:31.122Z,75.15
2018-06-14T04:00:01.365Z,75.03
2018-06-14T04:02:31.681Z,73.56
2018-06-14T04:05:01.953Z,73.54
2018-06-14T04:07:32.481Z,74.30
2018-06-14T04:10:02.969Z,74.14
2018-06-14T04:12:33.160Z,75.21
2018-06-14T04:15:03.628Z,75.73
2018-06-14T04:17:35.123Z,75.99
2018-06-14T04:20:05.429Z,76.13
2018-06-14T04:22:35.773Z,75.01
2018-06-14T04:25:06.150Z,74.01
2018-06-14T04:27:40.996Z,74.82
2018-06-14T04:30:11.467Z,74.03
2018-06-14T04:32:41.870Z,74.42
2018-06-14T04:35:12.317Z,74.33
2018-06-14T04:37:42.679Z,73.79
2018-06-14T04:40:13.130Z,71.87
2018-06-14T04:42:43.404Z,71.33
2018-06-14T04:45:13.702Z,73.65
2018-06-14T04:47:45.283Z,74.64
2018-06-14T04:50:15.721Z,74.78
2018-06-14T04:52:46.118Z,74.39
2018-06-14T04:55:16.478Z,71.53
2018-06-14T04:57:49.829Z,72.55
2018-06-14T05:00:20.522Z,73.59
2018-06-14T05:02:51.032Z,74.44
2018-06-14T05:05:21.282Z,73.89
2018-06-14T05:07:51.850Z,74.12
2018-06-14T05:10:22.165Z,73.06
2018-06-14T05:12:52.596Z,72.02
2018-06-14T05:15:22.773Z,69.77
2018-06-14T05:17:53.817Z,72.13
2018-06-14T05:20:24.162Z,74.50
2018-06-14T05:22:54.537Z,75.25
2018-06-14T05:25:24.965Z,72.08
2018-06-14T05:27:55.925Z,71.87
2018-06-14T05:30:26.277Z,74.21
2018-06-14T05:32:56.703Z,67.36
2018-06-14T05:35:26.788Z,70.41
2018-06-14T05:38:00.896Z,69.93
2018-06-14T05:40:31.134Z,72.61
2018-06-14T05:43:01.463Z,75.04
2018-06-14T05:45:31.702Z,70.75
2018-06-14T05:48:02.055Z,69.33
2018-06-14T05:50:32.432Z,67.94
2018-06-14T05:53:02.795Z,64.64
2018-06-14T05:55:33.132Z,60.28
2018-06-14T05:58:06.937Z,60.83
2018-06-14T06:00:37.279Z,59.51
2018-06-14T06:03:07.667Z,60.74
2018-06-14T06:05:37.879Z,59.55
2018-06-14T06:08:12.102Z,58.61
2018-06-14T06:10:42.497Z,57.73
2018-06-14T06:13:13.036Z,60.31
2018-06-14T06:15:43.273Z,60.91
2018-06-14T06:18:13.794Z,58.10
2018-06-14T06:20:44.001Z,58.26
2018-06-14T06:23:14.364Z,59.40
2018-06-14T06:25:44.667Z,59.55
2018-06-14T06:28:19.068Z,59.07
2018-06-14T06:30:49.322Z,60.70
2018-06-14T06:33:19.819Z,58.59
2018-06-14T06:35:49.920Z,58.98
2018-06-14T06:38:20.347Z,55.79
2018-06-14T06:40:50.797Z,57.82
2018-06-14T06:43:21.186Z,56.06
2018-06-14T06:45:51.629Z,55.41
2018-06-14T06:48:34.021Z,54.51
2018-06-14T06:51:04.570Z,55.30
2018-06-14T06:53:34.942Z,53.90
2018-06-14T06:56:05.269Z,55.42
2018-06-14T06:58:36.896Z,55.23
2018-06-14T07:01:07.282Z,54.71
2018-06-14T07:03:37.585Z,55.34
2018-06-14T07:06:07.919Z,54.97
2018-06-14T07:08:38.163Z,57.01
2018-06-14T07:11:08.418Z,54.31
2018-06-14T07:13:38.809Z,53.73
2018-06-14T07:16:09.277Z,54.22
2018-06-14T07:18:41.216Z,54.25
2018-06-14T07:21:11.679Z,53.06
2018-06-14T07:23:42.039Z,54.06
2018-06-14T07:26:12.241Z,53.26
2018-06-14T07:28:43.734Z,54.33
2018-06-14T07:31:14.055Z,54.07
2018-06-14T07:33:44.450Z,54.72
2018-06-14T07:36:14.887Z,54.07
2018-06-14T07:38:49.014Z,52.37
2018-06-14T07:41:23.393Z,53.70
2018-06-14T07:43:53.810Z,53.33
2018-06-14T07:46:24.196Z,52.77
2018-06-14T07:48:56.031Z,52.02
2018-06-14T07:51:26.385Z,51.85
2018-06-14T07:53:56.687Z,50.98
2018-06-14T07:56:27.061Z,51.20
2018-06-14T07:58:57.506Z,51.39
2018-06-14T08:01:27.881Z,51.36
2018-06-14T08:03:58.266Z,51.49
2018-06-14T08:06:32.759Z,49.34
2018-06-14T08:09:02.925Z,49.91
2018-06-14T08:11:33.518Z,48.73
2018-06-14T08:14:03.742Z,49.08
2018-06-14T08:16:38.031Z,49.24
2018-06-14T08:19:08.462Z,50.86
2018-06-14T08:21:38.929Z,51.13
2018-06-14T08:24:09.180Z,49.57
2018-06-14T08:26:43.546Z,49.13
2018-06-14T08:29:13.893Z,48.94
2018-06-14T08:31:44.345Z,47.67
2018-06-14T08:34:14.853Z,48.15
2018-06-14T08:36:46.362Z,47.17
2018-06-14T08:39:16.807Z,48.91
2018-06-14T08:41:47.251Z,46.51
2018-06-14T08:44:17.857Z,48.61
2018-06-14T08:46:52.662Z,45.97
2018-06-14T08:49:23.430Z,45.72
2018-06-14T08:51:53.956Z,47.23
2018-06-14T08:54:24.591Z,44.26
2018-06-14T08:57:00.706Z,43.69
2018-06-14T08:59:31.024Z,44.38
2018-06-14T09:02:01.303Z,44.37
2018-06-14T09:04:31.754Z,44.90
2018-06-14T09:07:02.350Z,47.17
2018-06-14T09:09:32.641Z,43.47
2018-06-14T09:12:03.003Z,45.79
2018-06-14T09:14:33.261Z,44.50
2018-06-14T09:17:03.273Z,44.07
2018-06-14T09:19:33.851Z,44.69
2018-06-14T09:22:04.428Z,45.64
2018-06-14T09:24:34.718Z,46.14
2018-06-14T09:27:04.889Z,46.18
2018-06-14T09:29:35.991Z,44.12
2018-06-14T09:32:06.414Z,41.95
2018-06-14T09:34:36.902Z,44.56
2018-06-14T09:37:07.605Z,45.61
2018-06-14T09:39:38.776Z,45.59
2018-06-14T09:42:09.166Z,43.83
2018-06-14T09:44:39.419Z,46.21
2018-06-14T09:47:09.966Z,45.64
2018-06-14T09:49:40.392Z,44.75
2018-06-14T09:52:10.633Z,46.35
2018-06-14T09:54:40.990Z,43.56
2018-06-14T09:57:11.626Z,42.93
2018-06-14T09:59:42.180Z,39.73
2018-06-14T10:02:13.563Z,41.21
2018-06-14T10:04:44.390Z,41.64
2018-06-14T10:07:16.813Z,42.21
2018-06-14T10:09:47.164Z,42.42
2018-06-14T10:12:17.312Z,44.49
2018-06-14T10:14:47.757Z,39.90
2018-06-14T10:17:21.490Z,41.14
2018-06-14T10:19:51.931Z,42.68
2018-06-14T10:22:23.378Z,43.99
2018-06-14T10:24:54.435Z,42.14
2018-06-14T10:27:30.554Z,41.70
2018-06-14T10:30:00.986Z,41.99
2018-06-14T10:32:31.474Z,41.70
2018-06-14T10:35:01.834Z,39.09
2018-06-14T10:37:35.419Z,41.67
2018-06-14T10:40:05.797Z,40.20
2018-06-14T10:42:36.200Z,39.89
2018-06-14T10:45:06.451Z,40.00
2018-06-14T10:47:36.912Z,41.43
2018-06-14T10:50:07.427Z,37.33
2018-06-14T10:52:37.677Z,38.31
2018-06-14T10:55:07.982Z,32.63
2018-06-14T10:57:42.163Z,34.17
2018-06-14T11:00:14.124Z,36.52
2018-06-14T11:02:44.410Z,38.59
2018-06-14T11:05:14.879Z,37.63
2018-06-14T11:07:48.824Z,32.51
2018-06-14T11:10:21.341Z,35.74
2018-06-14T11:12:51.807Z,38.09
2018-06-14T11:15:24.839Z,38.88
2018-06-14T11:17:58.570Z,39.49
2018-06-14T11:20:28.848Z,34.74
2018-06-14T11:22:59.177Z,37.36
2018-06-14T11:25:29.622Z,37.63
2018-06-14T11:28:05.737Z,36.04
2018-06-14T11:30:36.370Z,36.57
2018-06-14T11:33:06.623Z,36.87
2018-06-14T11:35:37.007Z,36.15
2018-06-14T11:38:07.644Z,35.74
2018-06-14T11:40:38.189Z,37.01
2018-06-14T11:43:08.464Z,37.20
2018-06-14T11:45:39.033Z,38.53
2018-06-14T11:48:09.298Z,37.79
2018-06-14T11:50:39.444Z,36.80
2018-06-14T11:53:09.676Z,35.60
2018-06-14T11:55:40.090Z,36.76
2018-06-14T11:58:14.273Z,35.85
2018-06-14T12:00:44.717Z,35.99
2018-06-14T12:03:14.991Z,36.54
2018-06-14T12:05:45.306Z,37.80
2018-06-14T12:08:18.872Z,35.19
2018-06-14T12:10:49.196Z,37.60
2018-06-14T12:13:19.656Z,36.72
2018-06-14T12:15:49.945Z,36.34
2018-06-14T12:18:20.253Z,37.22
2018-06-14T12:20:50.703Z,38.81
2018-06-14T12:23:21.056Z,38.56
2018-06-14T12:25:51.450Z,35.00
2018-06-14T12:28:21.829Z,36.07
2018-06-14T12:30:52.256Z,36.82
2018-06-14T12:33:22.674Z,37.18
2018-06-14T12:35:55.939Z,36.49
2018-06-14T12:38:26.089Z,35.25
2018-06-14T12:40:56.520Z,33.59
2018-06-14T12:43:26.970Z,32.53
2018-06-14T12:45:57.322Z,35.85
2018-06-14T12:48:27.654Z,34.46
2018-06-14T12:50:58.027Z,35.10
2018-06-14T12:53:28.333Z,34.84
2018-06-14T12:55:58.860Z,33.86
2018-06-14T12:58:29.088Z,34.27
2018-06-14T13:01:02.806Z,36.82
2018-06-14T13:03:37.206Z,37.36
2018-06-14T13:06:09.125Z,36.35
2018-06-14T13:08:40.552Z,36.86
2018-06-14T13:11:11.478Z,35.85
2018-06-14T13:13:41.737Z,39.77
2018-06-14T13:16:17.139Z,38.70
2018-06-14T13:18:47.924Z,38.73
2018-06-14T13:21:19.886Z,40.42
2018-06-14T13:23:50.730Z,38.67
2018-06-14T13:26:24.775Z,41.20
2018-06-14T13:28:55.262Z,39.88
2018-06-14T13:31:27.153Z,40.67
2018-06-14T13:33:58.381Z,41.22
2018-06-14T13:36:31.870Z,40.37
2018-06-14T13:39:02.185Z,39.61
2018-06-14T13:41:32.573Z,35.32
2018-06-14T13:44:02.807Z,37.62
2018-06-14T13:46:36.242Z,34.85
2018-06-14T13:49:06.703Z,38.98
2018-06-14T13:51:37.059Z,38.03
2018-06-14T13:54:07.397Z,38.39
2018-06-14T13:56:38.981Z,39.32
2018-06-14T13:59:09.207Z,40.81
2018-06-14T14:01:39.541Z,38.96
2018-06-14T14:04:10.006Z,41.22
2018-06-14T14:06:41.354Z,41.93
2018-06-14T14:09:11.738Z,39.23
2018-06-14T14:11:42.024Z,39.06
2018-06-14T14:14:12.288Z,40.43
2018-06-14T14:16:42.709Z,41.63
2018-06-14T14:19:13.144Z,43.62
2018-06-14T14:21:43.480Z,42.88
2018-06-14T14:24:13.726Z,43.83
2018-06-14T14:26:47.647Z,45.19
2018-06-14T14:29:18.085Z,47.09
2018-06-14T14:31:48.366Z,47.75
2018-06-14T14:34:18.826Z,47.02
2018-06-14T14:36:52.665Z,46.78
2018-06-14T14:39:23.111Z,47.52
2018-06-14T14:41:53.442Z,49.54
2018-06-14T14:44:23.746Z,49.24
2018-06-14T14:46:57.769Z,48.57
2018-06-14T14:49:28.058Z,48.08
2018-06-14T14:51:58.521Z,47.66
2018-06-14T14:54:28.773Z,45.75
2018-06-14T14:57:02.742Z,45.54
2018-06-14T14:59:33.202Z,45.73
2018-06-14T15:02:03.609Z,44.66
2018-06-14T15:04:34.118Z,46.53
2018-06-14T15:07:05.637Z,43.73
2018-06-14T15:09:36.058Z,41.32
2018-06-14T15:12:06.338Z,44.45
2018-06-14T15:14:36.798Z,46.65
2018-06-14T15:17:08.279Z,45.63
2018-06-14T15:19:38.706Z,49.19
2018-06-14T15:22:09.038Z,49.14
2018-06-14T15:24:39.382Z,49.58
2018-06-14T15:27:10.896Z,50.71
2018-06-14T15:29:41.104Z,50.81
2018-06-14T15:32:11.343Z,51.60
2018-06-14T15:34:41.732Z,51.83
2018-06-14T15:37:17.909Z,52.15
2018-06-14T15:39:48.368Z,52.14
2018-06-14T15:42:18.736Z,51.35
2018-06-14T15:44:49.014Z,50.90
2018-06-14T15:47:23.053Z,45.91
2018-06-14T15:49:53.449Z,45.21
2018-06-14T15:52:23.809Z,44.91
2018-06-14T15:54:53.456Z,45.18
2018-06-14T15:57:23.797Z,44.04
2018-06-14T15:59:54.260Z,44.97
2018-06-14T16:02:24.558Z,44.28
2018-06-14T16:04:54.987Z,43.99
2018-06-14T16:07:25.783Z,41.36
2018-06-14T16:09:56.354Z,42.89
2018-06-14T16:12:26.555Z,42.40
2018-06-14T16:14:56.995Z,42.07
2018-06-14T16:17:30.977Z,42.62
2018-06-14T16:20:02.987Z,43.80
2018-06-14T16:22:33.433Z,44.40
2018-06-14T16:25:03.901Z,43.81
2018-06-14T16:27:38.014Z,44.78
2018-06-14T16:30:14.952Z,44.77
2018-06-14T16:32:50.803Z,43.97
2018-06-14T16:35:25.059Z,44.27
2018-06-14T16:38:00.382Z,44.94
2018-06-14T16:40:31.519Z,45.09
2018-06-14T16:43:04.963Z,45.52
2018-06-14T16:45:42.136Z,46.30
2018-06-14T16:48:15.689Z,48.69
2018-06-14T16:50:46.475Z,49.37
2018-06-14T16:53:17.388Z,51.03
2018-06-14T16:55:51.550Z,51.41
2018-06-14T16:58:21.932Z,52.60
2018-06-14T17:00:52.284Z,54.34
2018-06-14T17:03:22.700Z,54.92
2018-06-14T17:05:56.681Z,57.12
2018-06-14T17:08:27.112Z,58.07
2018-06-14T17:10:57.577Z,58.02
2018-06-14T17:13:28.086Z,58.83
2018-06-14T17:15:59.483Z,58.98
2018-06-14T17:18:29.810Z,60.06
2018-06-14T17:21:00.292Z,61.07
2018-06-14T17:23:30.787Z,61.44
2018-06-14T17:26:04.614Z,62.70
2018-06-14T17:28:35.213Z,62.22
2018-06-14T17:31:05.639Z,63.56
2018-06-14T17:33:36.088Z,63.90
2018-06-14T17:36:06.597Z,63.56
2018-06-14T17:38:36.777Z,64.23
2018-06-14T17:41:07.377Z,65.71
2018-06-14T17:43:37.869Z,64.60
2018-06-14T17:46:08.507Z,65.31
2018-06-14T17:48:38.998Z,65.18
2018-06-14T17:51:09.938Z,63.96
2018-06-14T17:56:28.145Z,64.04
2018-06-14T17:59:00.427Z,64.83
2018-06-14T18:01:35.773Z,65.37
2018-06-14T18:04:10.194Z,65.17
2018-06-14T18:06:46.258Z,65.72
2018-06-14T18:09:16.791Z,65.87
2018-06-14T18:11:47.230Z,66.48
2018-06-14T18:14:17.887Z,66.17
2018-06-14T18:16:48.618Z,67.59
2018-06-14T18:19:19.129Z,66.82
2018-06-14T18:21:49.331Z,67.05
2018-06-14T18:24:19.579Z,67.61
2018-06-14T18:26:50.298Z,68.93
2018-06-14T18:31:28.577Z,68.28
2018-06-14T18:36:05.297Z,71.03
2018-06-14T18:40:44.844Z,73.20
2018-06-14T18:45:22.047Z,71.81
2018-06-14T18:49:59.316Z,71.73
2018-06-14T18:54:36.163Z,70.96
2018-06-14T18:59:13.996Z,72.03
2018-06-14T19:03:50.733Z,74.22
2018-06-14T19:08:27.835Z,74.57
2018-06-14T19:13:04.731Z,74.04
2018-06-14T19:17:41.739Z,74.83
2018-06-14T19:22:18.580Z,74.46
2018-06-14T19:26:57.385Z,75.13
2018-06-14T19:31:34.355Z,74.20
2018-06-14T19:36:11.349Z,73.87
2018-06-14T19:40:48.129Z,73.90
2018-06-14T19:45:27.189Z,76.41
2018-06-14T19:50:09.876Z,76.94
2018-06-14T19:54:46.877Z,76.54
2018-06-14T19:59:23.592Z,76.36
2018-06-14T20:04:00.435Z,77.04
2018-06-14T20:08:37.293Z,77.19
2018-06-14T20:13:14.062Z,76.99
2018-06-14T20:17:51.163Z,77.08
2018-06-14T20:22:27.990Z,77.23
2018-06-14T20:27:04.704Z,76.22
2018-06-14T20:32:34.575Z,76.29
2018-06-14T20:37:13.414Z,78.41
2018-06-14T20:41:51.969Z,79.19
2018-06-14T20:46:31.712Z,79.40
2018-06-14T20:51:10.242Z,79.41
2018-06-14T20:55:50.052Z,79.92
2018-06-14T21:00:29.286Z,79.85
2018-06-14T21:05:08.237Z,77.96
2018-06-14T21:09:46.944Z,77.83
2018-06-14T21:14:25.606Z,78.12
2018-06-14T21:19:04.213Z,78.42
2018-06-14T21:23:42.765Z,78.55
2018-06-14T21:28:21.413Z,77.05
2018-06-14T21:32:59.949Z,76.53
2018-06-14T21:37:38.609Z,76.84
2018-06-14T21:42:17.115Z,76.31
2018-06-14T21:46:55.999Z,77.04
2018-06-14T21:51:34.475Z,77.55
2018-06-14T21:56:13.261Z,77.37
2018-06-14T22:00:51.850Z,79.63
2018-06-14T22:05:30.564Z,79.79
2018-06-14T22:10:09.138Z,80.41
2018-06-14T22:14:47.881Z,80.41
2018-06-14T22:19:26.179Z,79.03
2018-06-14T22:24:04.717Z,79.62
2018-06-14T22:28:43.497Z,80.65
2018-06-14T22:35:36.513Z,78.63
2018-06-14T22:40:15.065Z,78.20
2018-06-14T22:44:53.716Z,77.79
2018-06-14T22:49:32.275Z,79.22
2018-06-14T22:54:10.858Z,81.33
2018-06-14T22:58:49.420Z,79.75
2018-06-14T23:03:27.913Z,78.92
2018-06-14T23:08:07.599Z,79.99
2018-06-14T23:12:46.885Z,80.32
2018-06-14T23:17:29.291Z,81.77
2018-06-14T23:22:07.938Z,81.79
2018-06-14T23:26:46.686Z,79.32
2018-06-14T23:31:25.345Z,77.11
2018-06-14T23:36:03.986Z,80.74
2018-06-14T23:40:42.545Z,78.72
2018-06-14T23:45:21.228Z,80.22
2018-06-14T23:49:59.704Z,81.92
2018-06-14T23:54:39.433Z,82.88
2018-06-14T23:59:18.036Z,81.13
